createdAt,value
2018-03-22T00:00:58.832Z,0.00
2018-03-22T00:01:58.836Z,0.00
2018-03-22T00:02:58.815Z,0.00
2018-03-22T00:03:58.805Z,0.00
2018-03-22T00:04:58.846Z,0.00
2018-03-22T00:05:58.751Z,0.00
2018-03-22T00:06:58.745Z,0.00
2018-03-22T00:07:58.722Z,0.00
2018-03-22T00:08:58.699Z,0.00
2018-03-22T00:09:58.685Z,0.00
2018-03-22T00:10:58.722Z,0.00
2018-03-22T00:11:58.653Z,0.00
2018-03-22T00:12:58.628Z,0.00
2018-03-22T00:13:58.675Z,0.00
2018-03-22T00:14:58.605Z,0.00
2018-03-22T00:15:58.576Z,0.00
2018-03-22T00:16:58.564Z,0.00
2018-03-22T00:17:58.536Z,0.00
2018-03-22T00:18:58.543Z,0.00
2018-03-22T00:19:58.531Z,0.00
2018-03-22T00:20:58.498Z,0.00
2018-03-22T00:21:58.474Z,0.00
2018-03-22T00:22:58.467Z,0.00
2018-03-22T00:23:58.453Z,0.00
2018-03-22T00:24:58.450Z,0.00
2018-03-22T00:25:58.405Z,0.00
2018-03-22T00:26:58.382Z,0.00
2018-03-22T00:27:58.408Z,0.00
2018-03-22T00:28:58.349Z,0.00
2018-03-22T00:29:59.046Z,0.00
2018-03-22T00:30:58.322Z,0.00
2018-03-22T00:31:58.286Z,0.00
2018-03-22T00:32:58.278Z,0.00
2018-03-22T00:33:58.257Z,0.00
2018-03-22T00:34:59.441Z,0.00
2018-03-22T00:35:58.269Z,0.00
2018-03-22T00:36:58.209Z,0.00
2018-03-22T00:37:58.195Z,0.00
2018-03-22T00:38:58.159Z,0.00
2018-03-22T00:39:58.188Z,0.00
2018-03-22T00:40:58.133Z,0.00
2018-03-22T00:41:58.171Z,0.00
2018-03-22T00:42:58.098Z,0.00
2018-03-22T00:43:58.073Z,0.00
2018-03-22T00:44:58.056Z,0.00
2018-03-22T00:45:58.038Z,0.00
2018-03-22T00:46:58.024Z,0.00
2018-03-22T00:47:58.046Z,0.00
2018-03-22T00:48:57.993Z,0.00
2018-03-22T00:49:57.977Z,0.00
2018-03-22T00:50:57.967Z,0.00
2018-03-22T00:51:57.934Z,0.00
2018-03-22T00:52:57.993Z,0.00
2018-03-22T00:53:57.912Z,0.00
2018-03-22T00:54:57.898Z,0.00
2018-03-22T00:55:57.874Z,0.00
2018-03-22T00:56:58.542Z,0.00
2018-03-22T00:57:57.843Z,0.00
2018-03-22T00:58:57.832Z,0.00
2018-03-22T00:59:57.796Z,0.00
2018-03-22T01:00:57.795Z,0.00
2018-03-22T01:01:57.757Z,0.00
2018-03-22T01:02:57.754Z,0.00
2018-03-22T01:03:57.763Z,0.00
2018-03-22T01:04:57.837Z,0.00
2018-03-22T01:05:57.690Z,0.00
2018-03-22T01:06:57.670Z,0.00
2018-03-22T01:07:58.533Z,0.00
2018-03-22T01:08:57.634Z,0.00
2018-03-22T01:09:57.621Z,0.00
2018-03-22T01:10:57.612Z,0.00
2018-03-22T01:11:57.626Z,0.00
2018-03-22T01:12:57.582Z,0.00
2018-03-22T01:13:57.556Z,0.00
2018-03-22T01:14:57.535Z,0.00
2018-03-22T01:15:57.515Z,0.00
2018-03-22T01:16:57.552Z,0.00
2018-03-22T01:17:57.481Z,0.00
2018-03-22T01:18:57.456Z,0.00
2018-03-22T01:19:57.440Z,0.00
2018-03-22T01:20:57.461Z,0.00
2018-03-22T01:21:57.437Z,0.00
2018-03-22T01:22:57.417Z,0.00
2018-03-22T01:23:57.387Z,0.00
2018-03-22T01:24:57.370Z,0.00
2018-03-22T01:25:57.371Z,0.00
2018-03-22T01:26:57.354Z,0.00
2018-03-22T01:27:57.301Z,0.00
2018-03-22T01:28:57.299Z,0.00
2018-03-22T01:29:57.289Z,0.00
2018-03-22T01:30:57.236Z,0.00
2018-03-22T01:31:57.230Z,0.00
2018-03-22T01:32:57.242Z,0.00
2018-03-22T01:33:57.608Z,0.00
2018-03-22T01:34:57.192Z,0.00
2018-03-22T01:35:57.146Z,0.00
2018-03-22T01:36:57.132Z,0.00
2018-03-22T01:37:57.112Z,0.00
2018-03-22T01:38:57.160Z,0.00
2018-03-22T01:39:57.087Z,0.00
2018-03-22T01:40:57.106Z,0.00
2018-03-22T01:41:57.092Z,0.00
2018-03-22T01:42:57.032Z,0.00
2018-03-22T01:43:57.059Z,0.00
2018-03-22T01:44:56.984Z,0.00
2018-03-22T01:45:57.005Z,0.00
2018-03-22T01:46:56.938Z,0.00
2018-03-22T01:47:56.929Z,0.00
2018-03-22T01:48:56.948Z,0.00
2018-03-22T01:49:56.891Z,0.00
2018-03-22T01:50:56.877Z,0.00
2018-03-22T01:51:56.851Z,0.00
2018-03-22T01:52:56.848Z,0.00
2018-03-22T01:53:56.876Z,0.00
2018-03-22T01:54:56.811Z,0.00
2018-03-22T01:55:56.781Z,0.00
2018-03-22T01:56:56.763Z,0.00
2018-03-22T01:57:56.803Z,0.00
2018-03-22T01:58:56.731Z,0.00
2018-03-22T01:59:56.754Z,0.00
2018-03-22T02:00:56.697Z,0.00
2018-03-22T02:01:56.669Z,0.00
2018-03-22T02:02:56.653Z,0.00
2018-03-22T02:03:56.641Z,0.00
2018-03-22T02:04:56.681Z,0.00
2018-03-22T02:05:56.594Z,0.00
2018-03-22T02:06:56.584Z,0.00
2018-03-22T02:07:56.559Z,0.00
2018-03-22T02:08:56.555Z,0.00
2018-03-22T02:09:56.522Z,0.00
2018-03-22T02:10:56.577Z,0.00
2018-03-22T02:11:56.484Z,0.00
2018-03-22T02:12:56.483Z,0.00
2018-03-22T02:13:56.443Z,0.00
2018-03-22T02:14:56.421Z,0.00
2018-03-22T02:15:56.430Z,0.00
2018-03-22T02:16:56.417Z,0.00
2018-03-22T02:17:56.381Z,0.00
2018-03-22T02:18:56.356Z,0.00
2018-03-22T02:19:56.348Z,0.00
2018-03-22T02:20:56.318Z,0.00
2018-03-22T02:21:56.366Z,0.00
2018-03-22T02:22:56.280Z,0.00
2018-03-22T02:23:56.264Z,0.00
2018-03-22T02:24:56.233Z,0.00
2018-03-22T02:25:56.224Z,0.00
2018-03-22T02:26:56.205Z,0.00
2018-03-22T02:27:56.210Z,0.00
2018-03-22T02:28:56.163Z,0.00
2018-03-22T02:29:56.143Z,0.00
2018-03-22T02:30:56.136Z,0.00
2018-03-22T02:31:56.118Z,0.00
2018-03-22T02:32:56.125Z,0.00
2018-03-22T02:33:56.133Z,0.00
2018-03-22T02:34:56.061Z,0.00
2018-03-22T02:35:56.040Z,0.00
2018-03-22T02:36:56.027Z,0.00
2018-03-22T02:37:56.011Z,0.00
2018-03-22T02:38:55.994Z,0.00
2018-03-22T02:39:55.971Z,0.00
2018-03-22T02:40:55.938Z,0.00
2018-03-22T02:41:55.931Z,0.00
2018-03-22T02:42:55.906Z,0.00
2018-03-22T02:43:55.886Z,0.00
2018-03-22T02:44:55.877Z,0.00
2018-03-22T02:45:55.850Z,0.00
2018-03-22T02:46:55.843Z,0.00
2018-03-22T02:47:55.818Z,0.00
2018-03-22T02:48:55.830Z,0.00
2018-03-22T02:49:55.783Z,0.00
2018-03-22T02:50:55.815Z,0.00
2018-03-22T02:51:55.742Z,0.00
2018-03-22T02:52:55.722Z,0.00
2018-03-22T02:53:55.715Z,0.00
2018-03-22T02:54:55.688Z,0.00
2018-03-22T02:55:55.681Z,0.00
2018-03-22T02:56:55.697Z,0.00
2018-03-22T02:57:55.638Z,0.00
2018-03-22T02:58:55.608Z,0.00
2018-03-22T02:59:55.586Z,0.00
2018-03-22T03:00:55.588Z,0.00
2018-03-22T03:01:55.564Z,0.00
2018-03-22T03:02:55.545Z,0.00
2018-03-22T03:03:55.520Z,0.00
2018-03-22T03:04:55.586Z,0.00
2018-03-22T03:05:55.471Z,0.00
2018-03-22T03:06:55.544Z,0.00
2018-03-22T03:07:55.449Z,0.00
2018-03-22T03:08:55.437Z,0.00
2018-03-22T03:09:55.410Z,0.00
2018-03-22T03:10:55.393Z,0.00
2018-03-22T03:11:55.374Z,0.00
2018-03-22T03:12:55.384Z,0.00
2018-03-22T03:13:55.333Z,0.00
2018-03-22T03:14:55.322Z,0.00
2018-03-22T03:15:55.302Z,0.00
2018-03-22T03:16:55.284Z,0.00
2018-03-22T03:17:55.291Z,0.00
2018-03-22T03:18:55.307Z,0.00
2018-03-22T03:19:55.234Z,0.00
2018-03-22T03:20:55.200Z,0.00
2018-03-22T03:21:55.197Z,0.00
2018-03-22T03:22:55.172Z,0.00
2018-03-22T03:23:55.146Z,0.00
2018-03-22T03:24:55.137Z,0.00
2018-03-22T03:25:55.116Z,0.00
2018-03-22T03:26:55.102Z,0.00
2018-03-22T03:27:55.085Z,0.00
2018-03-22T03:28:55.099Z,0.00
2018-03-22T03:29:55.034Z,0.00
2018-03-22T03:30:55.088Z,0.00
2018-03-22T03:31:55.016Z,0.00
2018-03-22T03:32:54.991Z,0.00
2018-03-22T03:33:54.964Z,0.00
2018-03-22T03:34:55.190Z,0.00
2018-03-22T03:35:54.936Z,0.00
2018-03-22T03:36:54.918Z,0.00
2018-03-22T03:37:54.894Z,0.00
2018-03-22T03:38:54.881Z,0.00
2018-03-22T03:39:54.891Z,0.00
2018-03-22T03:40:54.898Z,0.00
2018-03-22T03:41:54.830Z,0.00
2018-03-22T03:42:54.801Z,0.00
2018-03-22T03:43:54.787Z,0.00
2018-03-22T03:44:54.762Z,0.00
2018-03-22T03:45:54.750Z,0.00
2018-03-22T03:46:54.728Z,0.00
2018-03-22T03:47:54.723Z,0.00
2018-03-22T03:48:54.694Z,0.00
2018-03-22T03:49:54.676Z,0.00
2018-03-22T03:50:54.650Z,0.00
2018-03-22T03:51:54.669Z,0.00
2018-03-22T03:52:54.628Z,0.00
2018-03-22T03:53:54.606Z,0.00
2018-03-22T03:54:54.585Z,0.00
2018-03-22T03:55:54.570Z,0.00
2018-03-22T03:56:54.555Z,0.00
2018-03-22T03:57:54.569Z,0.00
2018-03-22T03:58:54.522Z,0.00
2018-03-22T03:59:54.510Z,0.00
2018-03-22T04:00:54.468Z,0.00
2018-03-22T04:01:54.465Z,0.00
2018-03-22T04:02:54.496Z,0.00
2018-03-22T04:03:54.437Z,0.00
2018-03-22T04:04:54.406Z,0.00
2018-03-22T04:05:54.375Z,0.00
2018-03-22T04:06:54.356Z,0.00
2018-03-22T04:07:54.359Z,0.00
2018-03-22T04:08:54.368Z,0.00
2018-03-22T04:09:54.305Z,0.00
2018-03-22T04:10:55.053Z,0.00
2018-03-22T04:11:54.265Z,0.00
2018-03-22T04:12:54.250Z,0.00
2018-03-22T04:13:54.252Z,0.00
2018-03-22T04:14:54.220Z,0.00
2018-03-22T04:15:54.182Z,0.00
2018-03-22T04:16:54.165Z,0.00
2018-03-22T04:17:54.162Z,0.00
2018-03-22T04:18:54.158Z,0.00
2018-03-22T04:19:54.166Z,0.00
2018-03-22T04:20:54.111Z,0.00
2018-03-22T04:21:54.078Z,0.00
2018-03-22T04:22:54.068Z,0.00
2018-03-22T04:23:54.040Z,0.00
2018-03-22T04:24:54.036Z,0.00
2018-03-22T04:25:54.070Z,0.00
2018-03-22T04:26:54.006Z,0.00
2018-03-22T04:27:54.071Z,0.00
2018-03-22T04:28:53.948Z,0.00
2018-03-22T04:29:53.971Z,0.00
2018-03-22T04:30:54.180Z,0.00
2018-03-22T04:31:53.911Z,0.00
2018-03-22T04:32:53.920Z,0.00
2018-03-22T04:33:53.874Z,0.00
2018-03-22T04:34:53.848Z,0.00
2018-03-22T04:35:53.829Z,0.00
2018-03-22T04:36:54.567Z,0.00
2018-03-22T04:37:53.978Z,0.00
2018-03-22T04:38:53.774Z,0.00
2018-03-22T04:39:54.602Z,0.00
2018-03-22T04:40:53.743Z,0.00
2018-03-22T04:41:53.714Z,0.00
2018-03-22T04:42:53.717Z,0.00
2018-03-22T04:43:53.750Z,0.00
2018-03-22T04:44:53.700Z,0.00
2018-03-22T04:45:53.649Z,0.00
2018-03-22T04:46:53.628Z,0.00
2018-03-22T04:47:53.625Z,0.00
2018-03-22T04:48:54.550Z,0.00
2018-03-22T04:49:53.608Z,0.00
2018-03-22T04:50:53.558Z,0.00
2018-03-22T04:51:53.535Z,0.00
2018-03-22T04:52:53.517Z,0.00
2018-03-22T04:53:53.498Z,0.00
2018-03-22T04:54:53.508Z,0.00
2018-03-22T04:55:53.646Z,0.00
2018-03-22T04:56:54.080Z,0.00
2018-03-22T04:57:53.749Z,0.00
2018-03-22T04:58:53.404Z,0.00
2018-03-22T04:59:53.376Z,0.00
2018-03-22T05:00:53.370Z,0.00
2018-03-22T05:01:53.343Z,0.00
2018-03-22T05:02:53.446Z,0.00
2018-03-22T05:03:53.714Z,0.00
2018-03-22T05:04:53.284Z,0.00
2018-03-22T05:05:53.274Z,4.00
2018-03-22T05:06:53.280Z,4.00
2018-03-22T05:07:53.609Z,4.00
2018-03-22T05:08:53.285Z,4.00
2018-03-22T05:09:54.048Z,4.00
2018-03-22T05:10:53.203Z,4.00
2018-03-22T05:11:53.153Z,4.00
2018-03-22T05:12:53.131Z,4.00
2018-03-22T05:13:53.324Z,8.00
2018-03-22T05:14:53.357Z,4.00
2018-03-22T05:15:53.233Z,8.00
2018-03-22T05:16:54.056Z,8.00
2018-03-22T05:17:53.062Z,8.00
2018-03-22T05:18:53.022Z,8.00
2018-03-22T05:19:53.058Z,12.00
2018-03-22T05:20:53.086Z,12.00
2018-03-22T05:21:52.970Z,8.00
2018-03-22T05:22:52.957Z,12.00
2018-03-22T05:23:52.937Z,12.00
2018-03-22T05:24:52.918Z,20.00
2018-03-22T05:25:52.901Z,24.00
2018-03-22T05:26:52.909Z,24.00
2018-03-22T05:27:52.854Z,20.00
2018-03-22T05:28:53.086Z,20.00
2018-03-22T05:29:52.817Z,24.00
2018-03-22T05:30:52.805Z,28.00
2018-03-22T05:31:52.788Z,28.00
2018-03-22T05:32:52.770Z,32.00
2018-03-22T05:33:52.783Z,36.00
2018-03-22T05:34:53.554Z,36.00
2018-03-22T05:35:53.559Z,36.00
2018-03-22T05:36:52.690Z,36.00
2018-03-22T05:37:52.675Z,44.00
2018-03-22T05:38:52.748Z,48.00
2018-03-22T05:39:52.668Z,48.00
2018-03-22T05:40:52.625Z,56.00
2018-03-22T05:41:52.632Z,60.00
2018-03-22T05:42:52.646Z,64.00
2018-03-22T05:43:52.568Z,68.00
2018-03-22T05:44:52.547Z,80.00
2018-03-22T05:45:52.526Z,88.00
2018-03-22T05:46:52.507Z,84.00
2018-03-22T05:47:52.482Z,100.00
2018-03-22T05:48:52.567Z,96.00
2018-03-22T05:49:52.461Z,96.00
2018-03-22T05:50:52.427Z,88.00
2018-03-22T05:51:52.426Z,100.00
2018-03-22T05:52:52.391Z,116.00
2018-03-22T05:53:52.379Z,132.00
2018-03-22T05:54:52.371Z,140.00
2018-03-22T05:55:52.353Z,172.00
2018-03-22T05:56:52.338Z,164.00
2018-03-22T05:57:52.307Z,184.00
2018-03-22T05:58:52.314Z,212.00
2018-03-22T05:59:52.311Z,180.00
2018-03-22T06:00:52.261Z,192.00
2018-03-22T06:01:52.286Z,188.00
2018-03-22T06:02:53.051Z,164.00
2018-03-22T06:03:52.203Z,144.00
2018-03-22T06:04:52.171Z,160.00
2018-03-22T06:05:52.152Z,188.00
2018-03-22T06:06:52.145Z,232.00
2018-03-22T06:07:52.158Z,252.00
2018-03-22T06:08:52.157Z,264.00
2018-03-22T06:09:52.090Z,252.00
2018-03-22T06:10:52.077Z,216.00
2018-03-22T06:11:52.043Z,184.00
2018-03-22T06:12:52.035Z,188.00
2018-03-22T06:13:52.043Z,192.00
2018-03-22T06:14:52.005Z,200.00
2018-03-22T06:15:51.971Z,252.00
2018-03-22T06:16:52.565Z,264.00
2018-03-22T06:17:51.941Z,260.00
2018-03-22T06:18:51.929Z,248.00
2018-03-22T06:19:51.902Z,360.00
2018-03-22T06:20:51.880Z,264.00
2018-03-22T06:21:51.861Z,268.00
2018-03-22T06:22:51.845Z,252.00
2018-03-22T06:23:51.820Z,264.00
2018-03-22T06:24:52.569Z,260.00
2018-03-22T06:25:51.773Z,296.00
2018-03-22T06:26:51.773Z,280.00
2018-03-22T06:27:51.755Z,316.00
2018-03-22T06:28:51.736Z,280.00
2018-03-22T06:29:53.559Z,316.00
2018-03-22T06:30:51.722Z,420.00
2018-03-22T06:31:51.677Z,388.00
2018-03-22T06:32:51.679Z,372.00
2018-03-22T06:33:51.650Z,420.00
2018-03-22T06:34:51.638Z,432.00
2018-03-22T06:35:51.636Z,316.00
2018-03-22T06:36:51.581Z,360.00
2018-03-22T06:37:51.637Z,416.00
2018-03-22T06:38:51.599Z,460.00
2018-03-22T06:39:52.076Z,412.00
2018-03-22T06:40:51.507Z,424.00
2018-03-22T06:41:53.258Z,392.00
2018-03-22T06:42:51.479Z,480.00
2018-03-22T06:43:51.472Z,404.00
2018-03-22T06:44:51.428Z,388.00
2018-03-22T06:45:54.065Z,440.00
2018-03-22T06:46:51.398Z,464.00
2018-03-22T06:47:51.449Z,476.00
2018-03-22T06:48:51.356Z,460.00
2018-03-22T06:49:51.333Z,376.00
2018-03-22T06:50:52.064Z,500.00
2018-03-22T06:51:51.472Z,524.00
2018-03-22T06:52:52.059Z,488.00
2018-03-22T06:53:51.308Z,500.00
2018-03-22T06:54:51.248Z,484.00
2018-03-22T06:55:52.065Z,424.00
2018-03-22T06:56:51.205Z,456.00
2018-03-22T06:57:53.076Z,580.00
2018-03-22T06:58:51.198Z,620.00
2018-03-22T06:59:52.456Z,652.00
2018-03-22T07:00:51.276Z,644.00
2018-03-22T07:01:51.121Z,612.00
2018-03-22T07:02:52.061Z,572.00
2018-03-22T07:03:51.147Z,520.00
2018-03-22T07:04:51.063Z,552.00
2018-03-22T07:05:51.043Z,572.00
2018-03-22T07:06:52.616Z,572.00
2018-03-22T07:07:53.551Z,776.00
2018-03-22T07:08:50.980Z,696.00
2018-03-22T07:09:52.057Z,652.00
2018-03-22T07:10:50.949Z,596.00
2018-03-22T07:11:51.187Z,492.00
2018-03-22T07:12:50.904Z,492.00
2018-03-22T07:13:50.896Z,520.00
2018-03-22T07:14:50.903Z,624.00
2018-03-22T07:15:50.861Z,876.00
2018-03-22T07:16:51.926Z,884.00
2018-03-22T07:17:50.828Z,896.00
2018-03-22T07:18:50.831Z,1116.00
2018-03-22T07:19:50.791Z,1248.00
2018-03-22T07:20:50.751Z,1236.00
2018-03-22T07:21:50.751Z,1060.00
2018-03-22T07:22:50.727Z,1052.00
2018-03-22T07:23:51.199Z,1056.00
2018-03-22T07:24:50.701Z,1080.00
2018-03-22T07:25:50.676Z,1144.00
2018-03-22T07:26:50.661Z,876.00
2018-03-22T07:27:50.643Z,884.00
2018-03-22T07:28:50.619Z,836.00
2018-03-22T07:29:50.657Z,1000.00
2018-03-22T07:30:50.575Z,896.00
2018-03-22T07:31:52.235Z,1072.00
2018-03-22T07:32:50.542Z,920.00
2018-03-22T07:33:50.553Z,808.00
2018-03-22T07:34:50.497Z,920.00
2018-03-22T07:35:52.083Z,964.00
2018-03-22T07:36:50.533Z,1096.00
2018-03-22T07:37:51.020Z,1036.00
2018-03-22T07:38:50.480Z,908.00
2018-03-22T07:39:50.567Z,908.00
2018-03-22T07:40:50.393Z,1024.00
2018-03-22T07:41:50.448Z,1084.00
2018-03-22T07:42:50.360Z,1072.00
2018-03-22T07:43:50.326Z,1080.00
2018-03-22T07:44:50.390Z,936.00
2018-03-22T07:45:50.317Z,860.00
2018-03-22T07:46:50.282Z,1000.00
2018-03-22T07:47:50.342Z,1068.00
2018-03-22T07:48:50.283Z,992.00
2018-03-22T07:49:50.231Z,1040.00
2018-03-22T07:50:50.213Z,1080.00
2018-03-22T07:51:50.254Z,1164.00
2018-03-22T07:52:50.211Z,1004.00
2018-03-22T07:53:50.208Z,1004.00
2018-03-22T07:54:50.148Z,1156.00
2018-03-22T07:55:50.117Z,1028.00
2018-03-22T07:56:50.097Z,1008.00
2018-03-22T07:57:50.090Z,1152.00
2018-03-22T07:58:50.059Z,1036.00
2018-03-22T07:59:50.035Z,932.00
2018-03-22T08:00:50.270Z,952.00
2018-03-22T08:01:50.011Z,1160.00
2018-03-22T08:02:50.007Z,1076.00
2018-03-22T08:03:50.038Z,1100.00
2018-03-22T08:04:51.038Z,1148.00
2018-03-22T08:05:49.970Z,1152.00
2018-03-22T08:06:51.584Z,1284.00
2018-03-22T08:07:50.597Z,1248.00
2018-03-22T08:08:49.950Z,1156.00
2018-03-22T08:09:49.860Z,1060.00
2018-03-22T08:10:49.894Z,1056.00
2018-03-22T08:11:50.580Z,1068.00
2018-03-22T08:12:49.938Z,1184.00
2018-03-22T08:13:49.810Z,1212.00
2018-03-22T08:14:50.095Z,1200.00
2018-03-22T08:15:49.914Z,1176.00
2018-03-22T08:16:50.164Z,1276.00
2018-03-22T08:17:49.783Z,1444.00
2018-03-22T08:18:50.585Z,1360.00
2018-03-22T08:19:49.712Z,1636.00
2018-03-22T08:20:51.971Z,1456.00
2018-03-22T08:21:49.719Z,1400.00
2018-03-22T08:22:49.624Z,1468.00
2018-03-22T08:23:49.951Z,1444.00
2018-03-22T08:24:49.732Z,1480.00
2018-03-22T08:25:49.586Z,1680.00
2018-03-22T08:26:49.542Z,1652.00
2018-03-22T08:27:49.567Z,1680.00
2018-03-22T08:28:49.515Z,1492.00
2018-03-22T08:34:13.523Z,1384.00
2018-03-22T08:35:13.023Z,1160.00
2018-03-22T08:36:13.502Z,1252.00
2018-03-22T08:37:12.784Z,1408.00
2018-03-22T08:38:12.783Z,1536.00
2018-03-22T08:39:12.727Z,1580.00
2018-03-22T08:40:12.710Z,1808.00
2018-03-22T08:41:12.694Z,2044.00
2018-03-22T08:42:12.710Z,1988.00
2018-03-22T08:43:12.696Z,1884.00
2018-03-22T08:44:12.643Z,1752.00
2018-03-22T08:45:12.708Z,1832.00
2018-03-22T08:46:12.603Z,1800.00
2018-03-22T08:47:12.729Z,1564.00
2018-03-22T08:48:12.684Z,1520.00
2018-03-22T08:49:12.730Z,1780.00
2018-03-22T08:50:12.593Z,1964.00
2018-03-22T08:51:12.521Z,1864.00
2018-03-22T08:52:13.070Z,1756.00
2018-03-22T08:53:12.471Z,1640.00
2018-03-22T08:54:16.882Z,1584.00
2018-03-22T08:55:12.442Z,1628.00
2018-03-22T08:56:12.437Z,1724.00
2018-03-22T08:57:12.410Z,1848.00
2018-03-22T08:58:12.486Z,2192.00
2018-03-22T08:59:12.374Z,2156.00
2018-03-22T09:00:12.354Z,2204.00
2018-03-22T09:01:12.337Z,2304.00
2018-03-22T09:02:12.351Z,2324.00
2018-03-22T09:03:12.370Z,1936.00
2018-03-22T09:04:12.273Z,1680.00
2018-03-22T09:05:12.253Z,1552.00
2018-03-22T09:06:12.240Z,1620.00
2018-03-22T09:07:12.219Z,1684.00
2018-03-22T09:08:13.037Z,1608.00
2018-03-22T09:09:12.245Z,1348.00
2018-03-22T09:10:12.180Z,1284.00
2018-03-22T09:11:12.151Z,1452.00
2018-03-22T09:12:12.134Z,1872.00
2018-03-22T09:13:12.104Z,2312.00
2018-03-22T09:14:12.089Z,2508.00
2018-03-22T09:15:12.079Z,2904.00
2018-03-22T09:16:12.064Z,2708.00
2018-03-22T09:17:12.046Z,2684.00
2018-03-22T09:18:12.015Z,2648.00
2018-03-22T09:19:12.004Z,2404.00
2018-03-22T09:20:12.053Z,2976.00
2018-03-22T09:21:11.969Z,2880.00
2018-03-22T09:22:11.978Z,2376.00
2018-03-22T09:23:11.934Z,2100.00
2018-03-22T09:24:13.527Z,2280.00
2018-03-22T09:25:12.048Z,2256.00
2018-03-22T09:26:11.957Z,2232.00
2018-03-22T09:27:11.862Z,2228.00
2018-03-22T09:28:11.852Z,2240.00
2018-03-22T09:29:11.838Z,1828.00
2018-03-22T09:30:11.808Z,1620.00
2018-03-22T09:31:12.541Z,1640.00
2018-03-22T09:32:11.770Z,1732.00
2018-03-22T09:33:11.780Z,1820.00
2018-03-22T09:34:11.786Z,2116.00
2018-03-22T09:35:11.909Z,2440.00
2018-03-22T09:36:11.801Z,2144.00
2018-03-22T09:37:11.719Z,2328.00
2018-03-22T09:38:11.759Z,2616.00
2018-03-22T09:39:11.678Z,2400.00
2018-03-22T09:40:11.641Z,2380.00
2018-03-22T09:41:11.614Z,2312.00
2018-03-22T09:42:11.601Z,2272.00
2018-03-22T09:43:11.626Z,1944.00
2018-03-22T09:44:11.560Z,2260.00
2018-03-22T09:45:12.514Z,2744.00
2018-03-22T09:46:11.530Z,2524.00
2018-03-22T09:47:12.568Z,2280.00
2018-03-22T09:48:11.520Z,2292.00
2018-03-22T09:49:11.524Z,1880.00
2018-03-22T09:50:11.494Z,1572.00
2018-03-22T09:51:12.066Z,1852.00
2018-03-22T09:52:11.470Z,2528.00
2018-03-22T09:53:11.424Z,3164.00
2018-03-22T09:54:11.998Z,3420.00
2018-03-22T09:55:11.443Z,3320.00
2018-03-22T09:56:12.009Z,3364.00
2018-03-22T09:57:11.344Z,4044.00
2018-03-22T09:58:11.575Z,3616.00
2018-03-22T09:59:11.286Z,2612.00
2018-03-22T10:00:11.293Z,2316.00
2018-03-22T10:01:28.034Z,2500.00
2018-03-22T10:02:12.134Z,2880.00
2018-03-22T10:03:11.502Z,3120.00
2018-03-22T10:04:11.203Z,3404.00
2018-03-22T10:05:11.199Z,3200.00
2018-03-22T10:06:11.178Z,3024.00
2018-03-22T10:07:11.145Z,3316.00
2018-03-22T10:08:11.287Z,3500.00
2018-03-22T10:09:12.253Z,3836.00
2018-03-22T10:10:11.248Z,2988.00
2018-03-22T10:11:11.080Z,2644.00
2018-03-22T10:12:11.073Z,2504.00
2018-03-22T10:13:11.120Z,2620.00
2018-03-22T10:14:12.037Z,2600.00
2018-03-22T10:15:11.134Z,2352.00
2018-03-22T10:16:10.994Z,2276.00
2018-03-22T10:17:10.981Z,2464.00
2018-03-22T10:18:11.124Z,2260.00
2018-03-22T10:19:11.236Z,2116.00
2018-03-22T10:20:10.922Z,2384.00
2018-03-22T10:21:11.072Z,2404.00
2018-03-22T10:22:11.028Z,2140.00
2018-03-22T10:23:10.880Z,2744.00
2018-03-22T10:24:10.851Z,3172.00
2018-03-22T10:25:10.876Z,3376.00
2018-03-22T10:26:10.873Z,3032.00
2018-03-22T10:27:10.805Z,3616.00
2018-03-22T10:28:10.780Z,4264.00
2018-03-22T10:29:10.772Z,4724.00
2018-03-22T10:30:10.743Z,4940.00
2018-03-22T10:31:10.738Z,4112.00
2018-03-22T10:32:10.780Z,4360.00
2018-03-22T10:33:10.705Z,4844.00
2018-03-22T10:34:10.829Z,5308.00
2018-03-22T10:35:10.665Z,5936.00
2018-03-22T10:36:10.638Z,6172.00
2018-03-22T10:37:10.631Z,4356.00
2018-03-22T10:38:10.629Z,3492.00
2018-03-22T10:39:10.589Z,3672.00
2018-03-22T10:40:10.578Z,3468.00
2018-03-22T10:41:10.560Z,3572.00
2018-03-22T10:42:11.513Z,3828.00
2018-03-22T10:43:11.514Z,3764.00
2018-03-22T10:44:10.509Z,3892.00
2018-03-22T10:45:10.602Z,3856.00
2018-03-22T10:46:10.479Z,3900.00
2018-03-22T10:47:13.020Z,4460.00
2018-03-22T10:48:16.045Z,4544.00
2018-03-22T10:49:10.517Z,5044.00
2018-03-22T10:50:10.402Z,4496.00
2018-03-22T10:51:10.384Z,4204.00
2018-03-22T10:52:10.368Z,3900.00
2018-03-22T10:53:10.350Z,3340.00
2018-03-22T10:54:10.335Z,3404.00
2018-03-22T10:55:10.356Z,3760.00
2018-03-22T10:56:10.304Z,3920.00
2018-03-22T10:57:10.279Z,4080.00
2018-03-22T10:58:10.259Z,4084.00
2018-03-22T10:59:11.033Z,3764.00
2018-03-22T11:00:10.552Z,3780.00
2018-03-22T11:01:10.595Z,3712.00
2018-03-22T11:02:10.252Z,4044.00
2018-03-22T11:03:10.185Z,4192.00
2018-03-22T11:04:10.253Z,4392.00
2018-03-22T11:05:10.217Z,4408.00
2018-03-22T11:06:10.153Z,4628.00
2018-03-22T11:07:10.131Z,4176.00
2018-03-22T11:08:10.098Z,3888.00
2018-03-22T11:09:10.088Z,3124.00
2018-03-22T11:10:10.102Z,2572.00
2018-03-22T11:11:10.395Z,2344.00
2018-03-22T11:12:10.056Z,2184.00
2018-03-22T11:13:10.550Z,2396.00
2018-03-22T11:14:10.035Z,2848.00
2018-03-22T11:15:10.019Z,3124.00
2018-03-22T11:16:09.972Z,3508.00
2018-03-22T11:17:10.040Z,3612.00
2018-03-22T11:18:09.941Z,2960.00
2018-03-22T11:19:09.966Z,3152.00
2018-03-22T11:20:09.908Z,2952.00
2018-03-22T11:21:09.882Z,3128.00
2018-03-22T11:22:09.911Z,2960.00
2018-03-22T11:23:10.552Z,2676.00
2018-03-22T11:24:09.844Z,2624.00
2018-03-22T11:25:09.945Z,2784.00
2018-03-22T11:26:09.794Z,2940.00
2018-03-22T11:27:10.492Z,3484.00
2018-03-22T11:28:09.793Z,3472.00
2018-03-22T11:29:09.835Z,3388.00
2018-03-22T11:30:09.775Z,3580.00
2018-03-22T11:31:09.737Z,3404.00
2018-03-22T11:32:09.745Z,3360.00
2018-03-22T11:33:09.695Z,3592.00
2018-03-22T11:34:09.668Z,3836.00
2018-03-22T11:35:09.653Z,3924.00
2018-03-22T11:36:11.522Z,4080.00
2018-03-22T11:37:09.652Z,3932.00
2018-03-22T11:38:09.596Z,4076.00
2018-03-22T11:39:09.592Z,4016.00
2018-03-22T11:40:09.590Z,3624.00
2018-03-22T11:41:09.578Z,3492.00
2018-03-22T11:42:10.073Z,3792.00
2018-03-22T11:43:09.514Z,4104.00
2018-03-22T11:44:09.510Z,4128.00
2018-03-22T11:45:09.489Z,4156.00
2018-03-22T11:46:09.490Z,4180.00
2018-03-22T11:47:09.490Z,3700.00
2018-03-22T11:48:09.429Z,3920.00
2018-03-22T11:49:09.451Z,3944.00
2018-03-22T11:50:09.407Z,3260.00
2018-03-22T11:51:09.412Z,3232.00
2018-03-22T11:52:09.371Z,3144.00
2018-03-22T11:53:09.355Z,3200.00
2018-03-22T11:54:09.358Z,3328.00
2018-03-22T11:55:09.337Z,3008.00
2018-03-22T11:56:09.350Z,3344.00
2018-03-22T11:57:09.294Z,4152.00
2018-03-22T11:58:09.271Z,3976.00
2018-03-22T11:59:09.289Z,3952.00
2018-03-22T12:00:09.270Z,4284.00
2018-03-22T12:01:09.221Z,4736.00
2018-03-22T12:02:09.212Z,4872.00
2018-03-22T12:03:09.191Z,4228.00
2018-03-22T12:04:09.179Z,4392.00
2018-03-22T12:05:09.202Z,3832.00
2018-03-22T12:06:09.133Z,3300.00
2018-03-22T12:09:42.731Z,3072.00
2018-03-22T12:10:45.367Z,2752.00
2018-03-22T12:11:42.546Z,2560.00
2018-03-22T12:12:42.427Z,2672.00
2018-03-22T12:13:42.371Z,2532.00
2018-03-22T12:14:42.751Z,2480.00
2018-03-22T12:15:42.426Z,2136.00
2018-03-22T12:16:42.334Z,2268.00
2018-03-22T12:17:42.320Z,2040.00
2018-03-22T12:18:42.292Z,2168.00
2018-03-22T12:19:42.303Z,2224.00
2018-03-22T12:20:42.478Z,2376.00
2018-03-22T12:21:42.327Z,2332.00
2018-03-22T12:22:42.231Z,2168.00
2018-03-22T12:23:42.214Z,2204.00
2018-03-22T12:24:42.195Z,2652.00
2018-03-22T12:25:42.190Z,2868.00
2018-03-22T12:26:42.200Z,3024.00
2018-03-22T12:27:42.155Z,3372.00
2018-03-22T12:28:42.124Z,3264.00
2018-03-22T12:29:42.432Z,3100.00
2018-03-22T12:30:42.090Z,3420.00
2018-03-22T12:31:42.140Z,2804.00
2018-03-22T12:32:42.108Z,2652.00
2018-03-22T12:33:42.052Z,2684.00
2018-03-22T12:34:42.049Z,2692.00
2018-03-22T12:35:42.031Z,2536.00
2018-03-22T12:36:42.097Z,2348.00
2018-03-22T12:37:41.995Z,2480.00
2018-03-22T12:38:42.036Z,2572.00
2018-03-22T12:39:41.950Z,2744.00
2018-03-22T12:40:41.970Z,2572.00
2018-03-22T12:41:41.999Z,3236.00
2018-03-22T12:42:41.911Z,3144.00
2018-03-22T12:43:41.910Z,3084.00
2018-03-22T12:44:41.861Z,3228.00
2018-03-22T12:45:41.856Z,3420.00
2018-03-22T12:46:41.833Z,3544.00